sensor_id;sensor_type;location;lat;lon;timestamp;pressure;altitude;pressure_sealevel;temperature;humidity
80712;BME280;70078;51.596;5.678;2023-12-22T00:01:11;100163.22;;;5.28;93.81
80712;BME280;70078;51.596;5.678;2023-12-22T00:03:37;100174.38;;;5.49;93.68
80712;BME280;70078;51.596;5.678;2023-12-22T00:06:02;100164.44;;;5.34;93.34
80712;BME280;70078;51.596;5.678;2023-12-22T00:08:28;100188.50;;;5.40;93.85
80712;BME280;70078;51.596;5.678;2023-12-22T00:10:53;100170.47;;;5.26;94.15
80712;BME280;70078;51.596;5.678;2023-12-22T00:13:18;100161.88;;;5.24;94.00
80712;BME280;70078;51.596;5.678;2023-12-22T00:15:43;100135.59;;;5.13;94.12
80712;BME280;70078;51.596;5.678;2023-12-22T00:18:09;100185.63;;;5.51;94.83
80712;BME280;70078;51.596;5.678;2023-12-22T00:20:35;100184.47;;;5.36;94.52
80712;BME280;70078;51.596;5.678;2023-12-22T00:23:00;100215.06;;;5.66;94.24
80712;BME280;70078;51.596;5.678;2023-12-22T00:25:26;100179.59;;;5.41;94.27
80712;BME280;70078;51.596;5.678;2023-12-22T00:27:51;100197.44;;;5.39;93.86
80712;BME280;70078;51.596;5.678;2023-12-22T00:30:16;100174.50;;;5.30;93.52
80712;BME280;70078;51.596;5.678;2023-12-22T00:32:41;100170.41;;;5.18;93.88
80712;BME280;70078;51.596;5.678;2023-12-22T00:35:07;100218.69;;;5.47;93.96
80712;BME280;70078;51.596;5.678;2023-12-22T00:37:33;100212.81;;;5.26;94.15
80712;BME280;70078;51.596;5.678;2023-12-22T00:39:58;100202.81;;;5.20;94.27
80712;BME280;70078;51.596;5.678;2023-12-22T00:42:24;100200.97;;;5.03;94.45
80712;BME280;70078;51.596;5.678;2023-12-22T00:44:49;100209.25;;;5.17;95.14
80712;BME280;70078;51.596;5.678;2023-12-22T00:47:14;100251.53;;;5.54;94.91
80712;BME280;70078;51.596;5.678;2023-12-22T00:49:39;100234.44;;;5.67;93.57
80712;BME280;70078;51.596;5.678;2023-12-22T00:52:05;100253.22;;;5.73;93.02
80712;BME280;70078;51.596;5.678;2023-12-22T00:54:30;100224.97;;;5.46;93.13
80712;BME280;70078;51.596;5.678;2023-12-22T00:56:57;100209.69;;;5.40;92.62
80712;BME280;70078;51.596;5.678;2023-12-22T00:59:22;100236.22;;;5.76;92.75
80712;BME280;70078;51.596;5.678;2023-12-22T01:01:48;100214.53;;;5.45;93.46
80712;BME280;70078;51.596;5.678;2023-12-22T01:04:13;100200.34;;;5.36;93.44
80712;BME280;70078;51.596;5.678;2023-12-22T01:06:39;100254.34;;;5.71;93.02
80712;BME280;70078;51.596;5.678;2023-12-22T01:09:04;100192.97;;;5.40;92.62
80712;BME280;70078;51.596;5.678;2023-12-22T01:11:30;100235.19;;;5.59;93.32
80712;BME280;70078;51.596;5.678;2023-12-22T01:13:55;100196.34;;;5.32;93.42
80712;BME280;70078;51.596;5.678;2023-12-22T01:16:21;100191.06;;;5.32;92.90
80712;BME280;70078;51.596;5.678;2023-12-22T01:18:47;100220.75;;;5.53;92.91
80712;BME280;70078;51.596;5.678;2023-12-22T01:21:12;100195.22;;;5.35;93.24
80712;BME280;70078;51.596;5.678;2023-12-22T01:23:38;100165.00;;;5.10;93.57
80712;BME280;70078;51.596;5.678;2023-12-22T01:26:03;100230.44;;;5.35;94.17
80712;BME280;70078;51.596;5.678;2023-12-22T01:28:28;100257.63;;;5.37;93.41
80712;BME280;70078;51.596;5.678;2023-12-22T01:30:54;100209.25;;;5.17;93.78
80712;BME280;70078;51.596;5.678;2023-12-22T01:33:19;100252.13;;;5.66;91.75
80712;BME280;70078;51.596;5.678;2023-12-22T01:35:44;100260.25;;;5.65;92.38
80712;BME280;70078;51.596;5.678;2023-12-22T01:38:09;100194.88;;;5.47;89.02
80712;BME280;70078;51.596;5.678;2023-12-22T01:40:35;100222.34;;;5.64;89.86
80712;BME280;70078;51.596;5.678;2023-12-22T01:43:01;100225.81;;;5.65;89.87
80712;BME280;70078;51.596;5.678;2023-12-22T01:45:26;100267.91;;;5.85;89.92
80712;BME280;70078;51.596;5.678;2023-12-22T01:47:52;100209.44;;;5.51;90.06
80712;BME280;70078;51.596;5.678;2023-12-22T01:50:17;100217.63;;;5.58;90.47
80712;BME280;70078;51.596;5.678;2023-12-22T01:52:43;100185.00;;;5.22;89.62
80712;BME280;70078;51.596;5.678;2023-12-22T01:55:10;100220.03;;;5.51;89.21
80712;BME280;70078;51.596;5.678;2023-12-22T01:57:36;100254.66;;;5.68;89.50
80712;BME280;70078;51.596;5.678;2023-12-22T02:00:03;100240.34;;;5.61;89.11
80712;BME280;70078;51.596;5.678;2023-12-22T02:02:30;100246.31;;;5.63;88.79
80712;BME280;70078;51.596;5.678;2023-12-22T02:04:57;100254.28;;;5.63;88.20
80712;BME280;70078;51.596;5.678;2023-12-22T02:07:22;100246.31;;;5.63;88.44
80712;BME280;70078;51.596;5.678;2023-12-22T02:09:47;100208.53;;;5.43;88.09
80712;BME280;70078;51.596;5.678;2023-12-22T02:12:13;100199.69;;;5.34;87.26
80712;BME280;70078;51.596;5.678;2023-12-22T02:14:38;100272.47;;;5.75;87.91
80712;BME280;70078;51.596;5.678;2023-12-22T02:17:43;100271.84;;;5.81;87.64
80712;BME280;70078;51.596;5.678;2023-12-22T02:20:08;100278.13;;;5.80;87.29
80712;BME280;70078;51.596;5.678;2023-12-22T02:22:34;100277.00;;;5.83;86.45
80712;BME280;70078;51.596;5.678;2023-12-22T02:25:00;100203.31;;;5.33;87.52
80712;BME280;70078;51.596;5.678;2023-12-22T02:27:30;100269.09;;;5.73;86.67
80712;BME280;70078;51.596;5.678;2023-12-22T02:33:03;100279.94;;;5.80;84.77
80712;BME280;70078;51.596;5.678;2023-12-22T02:35:30;100278.31;;;5.97;84.51
80712;BME280;70078;51.596;5.678;2023-12-22T02:37:57;100257.31;;;5.85;85.28
80712;BME280;70078;51.596;5.678;2023-12-22T02:40:24;100248.75;;;5.74;84.51
80712;BME280;70078;51.596;5.678;2023-12-22T02:42:51;100216.28;;;5.72;84.34
80712;BME280;70078;51.596;5.678;2023-12-22T02:45:18;100138.28;;;5.31;84.21
80712;BME280;70078;51.596;5.678;2023-12-22T02:47:44;100173.94;;;5.54;84.33
80712;BME280;70078;51.596;5.678;2023-12-22T02:50:10;100256.19;;;5.88;84.06
80712;BME280;70078;51.596;5.678;2023-12-22T02:52:36;100249.72;;;6.00;83.33
80712;BME280;70078;51.596;5.678;2023-12-22T02:55:02;100226.06;;;5.89;83.84
80712;BME280;70078;51.596;5.678;2023-12-22T02:57:28;100220.50;;;5.92;83.03
80712;BME280;70078;51.596;5.678;2023-12-22T02:59:53;100232.06;;;6.09;81.88
80712;BME280;70078;51.596;5.678;2023-12-22T03:02:18;100205.50;;;5.83;82.86
80712;BME280;70078;51.596;5.678;2023-12-22T03:04:44;100206.84;;;5.87;81.67
80712;BME280;70078;51.596;5.678;2023-12-22T03:07:11;100235.16;;;6.04;82.00
80712;BME280;70078;51.596;5.678;2023-12-22T03:09:36;100238.88;;;6.11;81.67
80712;BME280;70078;51.596;5.678;2023-12-22T03:12:02;100209.53;;;6.05;82.10
80712;BME280;70078;51.596;5.678;2023-12-22T03:14:30;100228.38;;;6.20;81.97
80712;BME280;70078;51.596;5.678;2023-12-22T03:16:58;100227.97;;;6.15;82.87
80712;BME280;70078;51.596;5.678;2023-12-22T03:19:23;100214.50;;;6.08;82.62
80712;BME280;70078;51.596;5.678;2023-12-22T03:21:49;100212.69;;;6.08;83.13
80712;BME280;70078;51.596;5.678;2023-12-22T03:24:14;100181.16;;;5.97;83.36
80712;BME280;70078;51.596;5.678;2023-12-22T03:26:39;100197.88;;;5.98;83.75
80712;BME280;70078;51.596;5.678;2023-12-22T03:29:05;100225.94;;;6.08;84.19
80712;BME280;70078;51.596;5.678;2023-12-22T03:31:30;100208.66;;;6.04;84.28
80712;BME280;70078;51.596;5.678;2023-12-22T03:33:55;100253.03;;;6.38;84.31
80712;BME280;70078;51.596;5.678;2023-12-22T03:36:21;100253.84;;;6.38;84.47
80712;BME280;70078;51.596;5.678;2023-12-22T03:38:46;100221.69;;;6.16;84.19
80712;BME280;70078;51.596;5.678;2023-12-22T03:41:12;100232.28;;;6.16;84.30
80712;BME280;70078;51.596;5.678;2023-12-22T03:43:37;100218.16;;;6.07;84.68
80712;BME280;70078;51.596;5.678;2023-12-22T03:46:02;100223.97;;;6.10;85.14
80712;BME280;70078;51.596;5.678;2023-12-22T03:48:28;100250.00;;;6.33;85.34
80712;BME280;70078;51.596;5.678;2023-12-22T03:50:53;100181.19;;;5.88;85.13
80712;BME280;70078;51.596;5.678;2023-12-22T03:53:18;100263.00;;;6.44;84.67
80712;BME280;70078;51.596;5.678;2023-12-22T03:55:44;100174.00;;;5.80;84.59
80712;BME280;70078;51.596;5.678;2023-12-22T03:58:10;100194.75;;;6.02;85.01
80712;BME280;70078;51.596;5.678;2023-12-22T04:00:35;100187.72;;;5.93;85.33
80712;BME280;70078;51.596;5.678;2023-12-22T04:03:01;100276.34;;;6.52;84.94
80712;BME280;70078;51.596;5.678;2023-12-22T04:05:27;100270.50;;;6.49;84.80
80712;BME280;70078;51.596;5.678;2023-12-22T04:07:52;100233.25;;;6.32;84.22
80712;BME280;70078;51.596;5.678;2023-12-22T04:10:17;100285.06;;;6.71;83.46
80712;BME280;70078;51.596;5.678;2023-12-22T04:12:43;100199.28;;;6.28;83.77
80712;BME280;70078;51.596;5.678;2023-12-22T04:15:09;100261.91;;;6.73;82.46
80712;BME280;70078;51.596;5.678;2023-12-22T04:17:34;100250.25;;;6.65;82.47
80712;BME280;70078;51.596;5.678;2023-12-22T04:19:59;100234.97;;;6.42;83.14
80712;BME280;70078;51.596;5.678;2023-12-22T04:22:24;100196.34;;;6.39;82.47
80712;BME280;70078;51.596;5.678;2023-12-22T04:24:50;100220.94;;;6.49;80.94
80712;BME280;70078;51.596;5.678;2023-12-22T04:27:15;100285.94;;;6.97;80.97
80712;BME280;70078;51.596;5.678;2023-12-22T04:29:40;100264.56;;;6.73;81.15
80712;BME280;70078;51.596;5.678;2023-12-22T04:32:06;100278.59;;;6.91;80.66
80712;BME280;70078;51.596;5.678;2023-12-22T04:34:31;100264.28;;;6.84;79.46
80712;BME280;70078;51.596;5.678;2023-12-22T04:36:56;100237.31;;;6.71;79.03
80712;BME280;70078;51.596;5.678;2023-12-22T04:39:21;100165.28;;;6.23;78.92
80712;BME280;70078;51.596;5.678;2023-12-22T04:41:47;100299.69;;;7.01;79.04
80712;BME280;70078;51.596;5.678;2023-12-22T04:44:12;100293.88;;;6.97;79.14
80712;BME280;70078;51.596;5.678;2023-12-22T04:46:37;100261.75;;;6.74;79.54
80712;BME280;70078;51.596;5.678;2023-12-22T04:49:02;100267.59;;;6.86;78.87
80712;BME280;70078;51.596;5.678;2023-12-22T04:51:28;100227.78;;;6.52;78.72
80712;BME280;70078;51.596;5.678;2023-12-22T04:53:53;100301.88;;;7.05;78.79
80712;BME280;70078;51.596;5.678;2023-12-22T04:56:18;100204.06;;;6.50;77.91
80712;BME280;70078;51.596;5.678;2023-12-22T04:58:44;100274.09;;;6.91;78.37
80712;BME280;70078;51.596;5.678;2023-12-22T05:01:09;100259.25;;;6.73;78.62
80712;BME280;70078;51.596;5.678;2023-12-22T05:03:34;100294.50;;;6.91;78.31
80712;BME280;70078;51.596;5.678;2023-12-22T05:06:00;100279.19;;;6.85;77.92
80712;BME280;70078;51.596;5.678;2023-12-22T05:08:25;100300.81;;;6.90;78.33
80712;BME280;70078;51.596;5.678;2023-12-22T05:10:50;100292.06;;;6.98;77.67
80712;BME280;70078;51.596;5.678;2023-12-22T05:13:16;100251.59;;;6.70;78.36
80712;BME280;70078;51.596;5.678;2023-12-22T05:15:41;100319.53;;;7.14;78.06
80712;BME280;70078;51.596;5.678;2023-12-22T05:18:06;100248.34;;;6.84;77.94
80712;BME280;70078;51.596;5.678;2023-12-22T05:20:31;100286.22;;;6.94;78.00
80712;BME280;70078;51.596;5.678;2023-12-22T05:22:57;100293.34;;;6.93;78.35
80712;BME280;70078;51.596;5.678;2023-12-22T05:25:23;100326.84;;;7.20;78.56
80712;BME280;70078;51.596;5.678;2023-12-22T05:27:49;100260.63;;;6.85;79.50
80712;BME280;70078;51.596;5.678;2023-12-22T05:30:14;100306.41;;;7.13;79.53
80712;BME280;70078;51.596;5.678;2023-12-22T05:32:39;100222.69;;;6.58;79.85
80712;BME280;70078;51.596;5.678;2023-12-22T05:35:05;100307.53;;;7.10;79.45
80712;BME280;70078;51.596;5.678;2023-12-22T05:37:30;100317.44;;;7.26;79.54
80712;BME280;70078;51.596;5.678;2023-12-22T05:39:55;100262.41;;;7.10;79.42
80712;BME280;70078;51.596;5.678;2023-12-22T05:42:21;100289.03;;;7.18;80.19
80712;BME280;70078;51.596;5.678;2023-12-22T05:44:46;100276.06;;;7.15;80.26
80712;BME280;70078;51.596;5.678;2023-12-22T05:47:15;100290.41;;;7.31;80.25
80712;BME280;70078;51.596;5.678;2023-12-22T05:49:40;100291.53;;;7.20;82.05
80712;BME280;70078;51.596;5.678;2023-12-22T05:52:06;100267.06;;;7.08;82.56
80712;BME280;70078;51.596;5.678;2023-12-22T05:54:31;100280.69;;;7.13;83.86
80712;BME280;70078;51.596;5.678;2023-12-22T05:56:56;100277.69;;;7.08;84.34
80712;BME280;70078;51.596;5.678;2023-12-22T05:59:22;100179.84;;;6.45;85.40
80712;BME280;70078;51.596;5.678;2023-12-22T06:01:47;100271.50;;;7.00;85.36
80712;BME280;70078;51.596;5.678;2023-12-22T06:04:12;100259.56;;;6.95;85.69
80712;BME280;70078;51.596;5.678;2023-12-22T06:06:38;100247.75;;;6.90;86.06
80712;BME280;70078;51.596;5.678;2023-12-22T06:09:04;100237.59;;;6.85;86.37
80712;BME280;70078;51.596;5.678;2023-12-22T06:11:30;100255.91;;;6.97;86.87
80712;BME280;70078;51.596;5.678;2023-12-22T06:13:56;100272.75;;;7.13;87.54
80712;BME280;70078;51.596;5.678;2023-12-22T06:16:21;100303.38;;;7.34;87.70
80712;BME280;70078;51.596;5.678;2023-12-22T06:18:47;100300.91;;;7.40;87.80
80712;BME280;70078;51.596;5.678;2023-12-22T06:21:12;100303.75;;;7.47;87.65
80712;BME280;70078;51.596;5.678;2023-12-22T06:23:37;100290.13;;;7.42;87.89
80712;BME280;70078;51.596;5.678;2023-12-22T06:26:12;100299.78;;;7.51;88.34
80712;BME280;70078;51.596;5.678;2023-12-22T06:28:37;100300.28;;;7.55;88.06
80712;BME280;70078;51.596;5.678;2023-12-22T06:31:05;100295.69;;;7.57;88.39
80712;BME280;70078;51.596;5.678;2023-12-22T06:33:30;100303.66;;;7.57;88.74
80712;BME280;70078;51.596;5.678;2023-12-22T06:35:56;100310.41;;;7.51;88.20
80712;BME280;70078;51.596;5.678;2023-12-22T06:38:21;100283.00;;;7.42;87.93
80712;BME280;70078;51.596;5.678;2023-12-22T06:40:46;100264.97;;;7.20;87.58
80712;BME280;70078;51.596;5.678;2023-12-22T06:43:12;100306.69;;;7.36;88.39
80712;BME280;70078;51.596;5.678;2023-12-22T06:45:37;100285.69;;;7.16;89.20
80712;BME280;70078;51.596;5.678;2023-12-22T06:48:05;100299.94;;;7.15;90.70
80712;BME280;70078;51.596;5.678;2023-12-22T06:50:30;100233.34;;;7.01;89.57
80712;BME280;70078;51.596;5.678;2023-12-22T06:52:56;100234.69;;;6.97;90.66
80712;BME280;70078;51.596;5.678;2023-12-22T06:55:21;100277.00;;;7.06;91.25
80712;BME280;70078;51.596;5.678;2023-12-22T06:57:46;100275.75;;;7.18;90.88
80712;BME280;70078;51.596;5.678;2023-12-22T07:00:12;100279.53;;;7.16;90.81
80712;BME280;70078;51.596;5.678;2023-12-22T07:02:37;100299.22;;;7.39;90.95
80712;BME280;70078;51.596;5.678;2023-12-22T07:07:50;100304.47;;;7.57;91.04
80712;BME280;70078;51.596;5.678;2023-12-22T07:10:18;100236.63;;;7.29;90.48
80712;BME280;70078;51.596;5.678;2023-12-22T07:12:43;100299.38;;;7.72;90.33
80712;BME280;70078;51.596;5.678;2023-12-22T07:15:08;100242.63;;;7.39;90.52
80712;BME280;70078;51.596;5.678;2023-12-22T07:17:36;100197.25;;;7.16;90.68
80712;BME280;70078;51.596;5.678;2023-12-22T07:20:01;100297.19;;;7.67;90.61
80712;BME280;70078;51.596;5.678;2023-12-22T07:22:28;100262.63;;;7.51;90.42
80712;BME280;70078;51.596;5.678;2023-12-22T07:24:53;100273.09;;;7.61;89.58
80712;BME280;70078;51.596;5.678;2023-12-22T07:27:20;100275.59;;;7.62;89.41
80712;BME280;70078;51.596;5.678;2023-12-22T07:29:45;100233.69;;;7.40;89.39
80712;BME280;70078;51.596;5.678;2023-12-22T07:32:11;100240.34;;;7.44;89.44
80712;BME280;70078;51.596;5.678;2023-12-22T07:34:36;100234.34;;;7.34;89.62
80712;BME280;70078;51.596;5.678;2023-12-22T07:37:02;100239.66;;;7.34;89.57
80712;BME280;70078;51.596;5.678;2023-12-22T07:39:27;100269.59;;;7.60;89.20
80712;BME280;70078;51.596;5.678;2023-12-22T07:41:52;100250.97;;;7.44;89.39
80712;BME280;70078;51.596;5.678;2023-12-22T07:44:17;100230.16;;;7.31;88.92
80712;BME280;70078;51.596;5.678;2023-12-22T07:46:43;100309.88;;;7.82;89.19
80712;BME280;70078;51.596;5.678;2023-12-22T07:49:08;100291.59;;;7.78;88.78
80712;BME280;70078;51.596;5.678;2023-12-22T07:51:33;100287.78;;;7.89;88.33
80712;BME280;70078;51.596;5.678;2023-12-22T07:53:58;100265.66;;;7.72;88.69
80712;BME280;70078;51.596;5.678;2023-12-22T07:56:24;100274.31;;;7.83;87.66
80712;BME280;70078;51.596;5.678;2023-12-22T07:58:49;100223.75;;;7.42;88.48
80712;BME280;70078;51.596;5.678;2023-12-22T08:01:14;100233.91;;;7.55;88.55
80712;BME280;70078;51.596;5.678;2023-12-22T08:03:42;100272.31;;;7.85;88.36
80712;BME280;70078;51.596;5.678;2023-12-22T08:06:07;100296.78;;;8.04;88.19
80712;BME280;70078;51.596;5.678;2023-12-22T08:08:33;100261.22;;;7.89;87.94
80712;BME280;70078;51.596;5.678;2023-12-22T08:10:59;100240.41;;;7.68;88.21
80712;BME280;70078;51.596;5.678;2023-12-22T08:13:25;100276.00;;;7.92;88.05
80712;BME280;70078;51.596;5.678;2023-12-22T08:15:50;100269.03;;;7.99;87.95
80712;BME280;70078;51.596;5.678;2023-12-22T08:18:24;100253.91;;;7.91;87.94
80712;BME280;70078;51.596;5.678;2023-12-22T08:20:50;100277.00;;;7.99;88.44
80712;BME280;70078;51.596;5.678;2023-12-22T08:23:15;100289.00;;;8.19;88.02
80712;BME280;70078;51.596;5.678;2023-12-22T08:25:40;100253.75;;;8.01;87.48
80712;BME280;70078;51.596;5.678;2023-12-22T08:28:08;100231.31;;;7.87;88.09
80712;BME280;70078;51.596;5.678;2023-12-22T08:30:34;100263.41;;;8.18;87.87
80712;BME280;70078;51.596;5.678;2023-12-22T08:32:59;100206.22;;;7.73;87.94
80712;BME280;70078;51.596;5.678;2023-12-22T08:35:25;100269.41;;;8.20;87.74
80712;BME280;70078;51.596;5.678;2023-12-22T08:37:50;100264.44;;;8.25;87.44
80712;BME280;70078;51.596;5.678;2023-12-22T08:40:15;100238.81;;;8.08;87.76
80712;BME280;70078;51.596;5.678;2023-12-22T08:42:41;100227.84;;;8.11;87.82
80712;BME280;70078;51.596;5.678;2023-12-22T08:45:06;100248.47;;;8.33;87.41
80712;BME280;70078;51.596;5.678;2023-12-22T08:47:32;100228.69;;;8.20;87.89
80712;BME280;70078;51.596;5.678;2023-12-22T08:49:57;100255.97;;;8.38;88.32
80712;BME280;70078;51.596;5.678;2023-12-22T08:52:22;100206.25;;;8.14;87.95
80712;BME280;70078;51.596;5.678;2023-12-22T08:54:48;100185.16;;;8.13;87.96
80712;BME280;70078;51.596;5.678;2023-12-22T08:57:13;100261.78;;;8.58;88.42
80712;BME280;70078;51.596;5.678;2023-12-22T08:59:38;100256.81;;;8.55;88.33
80712;BME280;70078;51.596;5.678;2023-12-22T09:02:03;100227.88;;;8.44;88.22
80712;BME280;70078;51.596;5.678;2023-12-22T09:04:29;100265.59;;;8.72;88.29
80712;BME280;70078;51.596;5.678;2023-12-22T09:06:54;100217.22;;;8.27;88.76
80712;BME280;70078;51.596;5.678;2023-12-22T09:09:19;100269.75;;;8.66;88.59
80712;BME280;70078;51.596;5.678;2023-12-22T09:11:46;100223.91;;;8.48;88.85
80712;BME280;70078;51.596;5.678;2023-12-22T09:14:12;100216.91;;;8.55;88.39
80712;BME280;70078;51.596;5.678;2023-12-22T09:16:37;100265.91;;;8.85;88.73
80712;BME280;70078;51.596;5.678;2023-12-22T09:19:03;100238.19;;;8.55;89.24
80712;BME280;70078;51.596;5.678;2023-12-22T09:21:28;100186.81;;;8.22;89.81
80712;BME280;70078;51.596;5.678;2023-12-22T09:23:54;100229.22;;;8.48;90.14
80712;BME280;70078;51.596;5.678;2023-12-22T09:26:19;100230.19;;;8.63;89.63
80712;BME280;70078;51.596;5.678;2023-12-22T09:28:45;100251.78;;;8.84;90.11
80712;BME280;70078;51.596;5.678;2023-12-22T09:31:10;100252.56;;;9.01;90.10
80712;BME280;70078;51.596;5.678;2023-12-22T09:33:36;100239.94;;;8.87;89.80
80712;BME280;70078;51.596;5.678;2023-12-22T09:36:01;100243.06;;;8.99;89.90
80712;BME280;70078;51.596;5.678;2023-12-22T09:38:27;100255.25;;;8.93;91.78
80712;BME280;70078;51.596;5.678;2023-12-22T09:40:54;100250.22;;;8.98;91.85
80712;BME280;70078;51.596;5.678;2023-12-22T09:43:21;100197.47;;;8.54;92.70
80712;BME280;70078;51.596;5.678;2023-12-22T09:45:47;100195.28;;;8.58;92.74
80712;BME280;70078;51.596;5.678;2023-12-22T09:48:17;100211.88;;;8.60;93.08
80712;BME280;70078;51.596;5.678;2023-12-22T09:50:43;100199.75;;;8.66;93.03
80712;BME280;70078;51.596;5.678;2023-12-22T09:53:11;100250.06;;;9.00;93.06
80712;BME280;70078;51.596;5.678;2023-12-22T09:55:38;100224.50;;;8.74;93.06
80712;BME280;70078;51.596;5.678;2023-12-22T09:58:04;100197.44;;;8.63;93.32
80712;BME280;70078;51.596;5.678;2023-12-22T10:00:31;100262.38;;;9.01;93.07
80712;BME280;70078;51.596;5.678;2023-12-22T10:02:58;100220.16;;;8.81;93.17
80712;BME280;70078;51.596;5.678;2023-12-22T10:05:23;100188.63;;;8.62;93.01
80712;BME280;70078;51.596;5.678;2023-12-22T10:07:49;100142.75;;;8.44;92.77
80712;BME280;70078;51.596;5.678;2023-12-22T10:10:15;100249.03;;;9.09;92.64
80712;BME280;70078;51.596;5.678;2023-12-22T10:12:44;100176.75;;;8.81;92.42
80712;BME280;70078;51.596;5.678;2023-12-22T10:15:11;100243.25;;;9.36;91.32
80712;BME280;70078;51.596;5.678;2023-12-22T10:17:37;100207.06;;;9.19;91.10
80712;BME280;70078;51.596;5.678;2023-12-22T10:20:03;100249.09;;;9.40;90.65
80712;BME280;70078;51.596;5.678;2023-12-22T10:22:28;100231.34;;;9.24;90.65
80712;BME280;70078;51.596;5.678;2023-12-22T10:24:53;100249.53;;;9.52;90.84
80712;BME280;70078;51.596;5.678;2023-12-22T10:27:19;100201.19;;;9.32;89.59
80712;BME280;70078;51.596;5.678;2023-12-22T10:29:56;100221.59;;;9.48;88.16
80712;BME280;70078;51.596;5.678;2023-12-22T10:32:22;100174.59;;;9.24;87.96
80712;BME280;70078;51.596;5.678;2023-12-22T10:34:48;100187.00;;;9.39;87.41
80712;BME280;70078;51.596;5.678;2023-12-22T10:37:16;100216.25;;;9.48;87.48
80712;BME280;70078;51.596;5.678;2023-12-22T10:39:41;100211.31;;;9.67;88.13
80712;BME280;70078;51.596;5.678;2023-12-22T10:42:07;100169.13;;;9.48;87.91
80712;BME280;70078;51.596;5.678;2023-12-22T10:44:32;100190.91;;;9.52;87.91
80712;BME280;70078;51.596;5.678;2023-12-22T10:46:57;100229.03;;;9.83;87.76
80712;BME280;70078;51.596;5.678;2023-12-22T10:49:24;100238.69;;;9.84;87.88
80712;BME280;70078;51.596;5.678;2023-12-22T10:51:50;100229.56;;;9.79;88.43
80712;BME280;70078;51.596;5.678;2023-12-22T10:54:17;100192.59;;;9.53;88.15
80712;BME280;70078;51.596;5.678;2023-12-22T10:56:42;100176.66;;;9.36;88.11
80712;BME280;70078;51.596;5.678;2023-12-22T10:59:10;100177.44;;;9.53;88.01
80712;BME280;70078;51.596;5.678;2023-12-22T11:01:37;100230.47;;;9.94;87.58
80712;BME280;70078;51.596;5.678;2023-12-22T11:04:16;100231.47;;;9.93;87.80
80712;BME280;70078;51.596;5.678;2023-12-22T11:06:44;100233.50;;;9.91;87.72
80712;BME280;70078;51.596;5.678;2023-12-22T11:09:11;100224.00;;;9.88;87.16
80712;BME280;70078;51.596;5.678;2023-12-22T11:11:39;100212.56;;;9.80;87.39
80712;BME280;70078;51.596;5.678;2023-12-22T11:14:06;100174.03;;;9.59;86.74
80712;BME280;70078;51.596;5.678;2023-12-22T11:16:37;100191.94;;;9.73;87.22
80712;BME280;70078;51.596;5.678;2023-12-22T11:19:03;100231.94;;;9.96;86.88
80712;BME280;70078;51.596;5.678;2023-12-22T11:21:29;100214.88;;;10.06;86.16
80712;BME280;70078;51.596;5.678;2023-12-22T11:23:55;100183.78;;;9.75;85.88
80712;BME280;70078;51.596;5.678;2023-12-22T11:26:23;100175.81;;;9.67;85.97
80712;BME280;70078;51.596;5.678;2023-12-22T11:28:50;100184.06;;;9.80;85.97
80712;BME280;70078;51.596;5.678;2023-12-22T11:31:17;100230.16;;;10.12;85.47
80712;BME280;70078;51.596;5.678;2023-12-22T11:33:46;100213.94;;;9.98;85.45
80712;BME280;70078;51.596;5.678;2023-12-22T11:36:13;100241.84;;;10.11;85.10
80712;BME280;70078;51.596;5.678;2023-12-22T11:38:40;100214.09;;;9.97;84.86
80712;BME280;70078;51.596;5.678;2023-12-22T11:41:06;100224.81;;;10.12;85.52
80712;BME280;70078;51.596;5.678;2023-12-22T11:43:33;100186.41;;;9.83;85.50
80712;BME280;70078;51.596;5.678;2023-12-22T11:46:03;100223.53;;;10.08;85.85
80712;BME280;70078;51.596;5.678;2023-12-22T11:48:29;100200.34;;;10.08;85.67
80712;BME280;70078;51.596;5.678;2023-12-22T11:50:55;100221.78;;;10.23;85.54
80712;BME280;70078;51.596;5.678;2023-12-22T11:53:22;100189.19;;;10.05;84.72
80712;BME280;70078;51.596;5.678;2023-12-22T11:58:45;100169.50;;;9.91;85.27
80712;BME280;70078;51.596;5.678;2023-12-22T12:01:19;100210.03;;;10.32;83.73
80712;BME280;70078;51.596;5.678;2023-12-22T12:03:50;100205.41;;;10.26;84.43
80712;BME280;70078;51.596;5.678;2023-12-22T12:08:56;100149.22;;;9.82;85.29
80712;BME280;70078;51.596;5.678;2023-12-22T12:11:23;100144.16;;;9.72;85.20
80712;BME280;70078;51.596;5.678;2023-12-22T12:13:49;100171.91;;;10.00;85.57
80712;BME280;70078;51.596;5.678;2023-12-22T12:16:19;100204.09;;;10.22;85.32
80712;BME280;70078;51.596;5.678;2023-12-22T12:18:46;100213.69;;;10.31;84.05
80712;BME280;70078;51.596;5.678;2023-12-22T12:21:12;100196.16;;;10.37;84.04
80712;BME280;70078;51.596;5.678;2023-12-22T12:23:37;100182.06;;;10.28;84.75
80712;BME280;70078;51.596;5.678;2023-12-22T12:26:11;100137.97;;;9.94;84.32
80712;BME280;70078;51.596;5.678;2023-12-22T12:28:37;100140.94;;;9.99;84.81
80712;BME280;70078;51.596;5.678;2023-12-22T12:31:05;100191.97;;;10.34;84.35
80712;BME280;70078;51.596;5.678;2023-12-22T12:33:31;100181.56;;;10.24;84.49
80712;BME280;70078;51.596;5.678;2023-12-22T12:36:16;100042.31;;;9.39;86.06
80712;BME280;70078;51.596;5.678;2023-12-22T12:38:55;100125.09;;;9.83;87.52
80712;BME280;70078;51.596;5.678;2023-12-22T12:41:36;100192.75;;;10.20;87.74
80712;BME280;70078;51.596;5.678;2023-12-22T12:44:03;100159.72;;;10.06;88.21
80712;BME280;70078;51.596;5.678;2023-12-22T12:46:34;100184.06;;;10.26;87.68
80712;BME280;70078;51.596;5.678;2023-12-22T12:49:05;100196.38;;;10.27;87.46
80712;BME280;70078;51.596;5.678;2023-12-22T12:52:00;100188.22;;;10.28;87.07
80712;BME280;70078;51.596;5.678;2023-12-22T12:54:26;100147.91;;;10.00;86.87
80712;BME280;70078;51.596;5.678;2023-12-22T12:56:51;100187.47;;;10.35;85.80
80712;BME280;70078;51.596;5.678;2023-12-22T12:59:17;100179.41;;;10.20;85.68
80712;BME280;70078;51.596;5.678;2023-12-22T13:01:47;100165.06;;;10.06;85.45
80712;BME280;70078;51.596;5.678;2023-12-22T13:04:13;100189.09;;;10.21;86.09
80712;BME280;70078;51.596;5.678;2023-12-22T13:06:46;100124.72;;;9.86;85.14